Terminal Aerodrome Forecast
Issued by NWS

Home | Current Version | Previous Version | Graphics & Text | Print | Product List | Glossary On
Versions: 1 2 3 4 5 6 7 8 9 10 11 12 13 14 15
469
FTUS42 KMHX 051610 AAA
TAFISO
TAF AMD
KISO 051610Z 0516/0612 33007KT P6SM SCT008 BKN100
      TEMPO 0516/0517 BKN008
     FM051800 35007KT P6SM SCT050 BKN100
     FM060600 04008KT 5SM -RA SCT015 OVC035
      AMD LTD TO CLD VIS AND WIND=

USA.gov is the U.S. government's official web portal to all federal, state and local government web resources and services.